Terminal Aerodrome Forecast
Issued by NWS

Current Version | Previous Version | Text Only | Print | Product List | Glossary On
Versions: 1 2 3 4 5 6 7 8 9 10 11 12 13 14 15 16 17 18 19 20 21 22 23 24 25 26 27 28 29 30 31 32
000
FTUS44 KMOB 230524
TAFBFM
TAF
KBFM 230524Z 2306/2406 23003KT P6SM SKC
     FM231200 VRB03KT P6SM VCSH BKN050
     FM231500 14006KT P6SM VCTS SCT030CB BKN250
      TEMPO 2317/2320 VRB15KT 2SM TSRA BKN010CB
     FM240000 25004KT P6SM BKN250=

USA.gov is the U.S. government's official web portal to all federal, state and local government web resources and services.